createdAt,value
2019-03-05T00:00:55.800Z,11.63
2019-03-05T00:03:23.917Z,10.83
2019-03-05T00:05:52.500Z,15.10
2019-03-05T00:08:20.578Z,8.97
2019-03-05T00:10:48.639Z,11.03
2019-03-05T00:13:17.708Z,10.20
2019-03-05T00:15:47.669Z,7.80
2019-03-05T00:18:16.013Z,7.73
2019-03-05T00:20:44.633Z,12.07
2019-03-05T00:23:18.187Z,10.13
2019-03-05T00:25:46.399Z,10.90
2019-03-05T00:28:34.794Z,10.23
2019-03-05T00:31:19.956Z,12.97
2019-03-05T00:34:42.637Z,6.53
2019-03-05T00:37:41.998Z,6.67
2019-03-05T00:40:39.919Z,7.27
2019-03-05T00:43:19.712Z,7.40
2019-03-05T00:46:18.264Z,5.23
2019-03-05T00:49:35.426Z,3.83
2019-03-05T00:53:19.193Z,4.43
2019-03-05T00:56:34.898Z,3.87
2019-03-05T00:59:56.655Z,5.07
2019-03-05T01:03:00.359Z,8.30
2019-03-05T01:06:21.984Z,14.50
2019-03-05T01:08:50.889Z,12.77
2019-03-05T01:11:21.167Z,12.60
2019-03-05T01:13:49.243Z,12.47
2019-03-05T01:16:19.601Z,15.33
2019-03-05T01:18:48.074Z,14.83
2019-03-05T01:21:16.330Z,12.20
2019-03-05T01:23:44.638Z,9.07
2019-03-05T01:26:13.208Z,6.83
2019-03-05T01:28:41.296Z,5.70
2019-03-05T01:31:29.033Z,4.87
2019-03-05T01:34:03.104Z,2.53
2019-03-05T01:36:33.777Z,2.97
2019-03-05T01:39:20.095Z,3.37
2019-03-05T01:41:48.352Z,8.17
2019-03-05T01:44:16.577Z,4.63
2019-03-05T01:46:44.663Z,5.80
2019-03-05T01:49:12.883Z,5.60
2019-03-05T01:51:40.968Z,5.30
2019-03-05T01:54:09.018Z,7.57
2019-03-05T01:56:37.214Z,8.13
2019-03-05T01:59:05.306Z,9.07
2019-03-05T02:01:33.638Z,9.27
2019-03-05T02:04:02.279Z,6.60
2019-03-05T02:06:30.350Z,5.37
2019-03-05T02:08:58.579Z,7.63
2019-03-05T02:11:27.010Z,8.40
2019-03-05T02:13:55.191Z,8.33
2019-03-05T02:16:23.773Z,11.13
2019-03-05T02:19:09.507Z,9.57
2019-03-05T02:21:37.602Z,10.97
2019-03-05T02:25:21.881Z,10.83
2019-03-05T02:28:39.974Z,8.20
2019-03-05T02:31:59.206Z,10.07
2019-03-05T02:34:56.174Z,9.83
2019-03-05T02:38:35.233Z,12.70
2019-03-05T02:41:51.135Z,16.77
2019-03-05T02:45:04.402Z,12.70
2019-03-05T02:48:41.580Z,13.70
2019-03-05T02:52:07.893Z,12.93
2019-03-05T02:55:23.151Z,8.07
2019-03-05T02:57:49.746Z,9.33
2019-03-05T03:00:25.786Z,7.60
2019-03-05T03:03:00.823Z,7.33
2019-03-05T03:05:48.923Z,7.47
2019-03-05T03:08:17.052Z,7.00
2019-03-05T03:10:45.135Z,7.57
2019-03-05T03:13:13.274Z,6.57
2019-03-05T03:15:41.357Z,6.20
2019-03-05T03:18:09.502Z,6.27
2019-03-05T03:20:38.430Z,4.20
2019-03-05T03:23:06.646Z,5.90
2019-03-05T03:25:34.914Z,2.03
2019-03-05T03:28:03.105Z,6.43
2019-03-05T03:30:31.198Z,4.63
2019-03-05T03:32:59.449Z,2.20
2019-03-05T03:35:27.566Z,4.73
2019-03-05T03:37:55.674Z,3.47
2019-03-05T03:40:24.541Z,6.70
2019-03-05T03:42:53.358Z,5.37
2019-03-05T03:45:23.634Z,2.97
2019-03-05T03:47:51.729Z,5.73
2019-03-05T03:50:19.843Z,6.40
2019-03-05T03:52:48.081Z,5.00
2019-03-05T03:55:16.916Z,5.13
2019-03-05T03:57:45.542Z,6.80
2019-03-05T04:00:17.471Z,4.47
2019-03-05T04:02:45.574Z,3.37
2019-03-05T04:05:13.793Z,5.23
2019-03-05T04:07:41.888Z,4.30
2019-03-05T04:10:10.373Z,4.30
2019-03-05T04:12:38.504Z,2.77
2019-03-05T04:15:09.690Z,4.23
2019-03-05T04:17:37.859Z,2.70
2019-03-05T04:20:08.359Z,3.33
2019-03-05T04:22:36.622Z,4.77
2019-03-05T04:25:05.917Z,5.57
2019-03-05T04:27:34.259Z,3.27
2019-03-05T04:30:02.774Z,3.77
2019-03-05T04:32:30.956Z,6.07
2019-03-05T04:34:59.158Z,4.20
2019-03-05T04:37:27.245Z,3.53
2019-03-05T04:39:55.648Z,7.23
2019-03-05T04:42:23.977Z,11.03
2019-03-05T04:44:58.155Z,10.10
2019-03-05T04:47:26.647Z,7.33
2019-03-05T04:50:17.439Z,6.93
2019-03-05T04:52:45.611Z,5.80
2019-03-05T04:55:14.010Z,7.77
2019-03-05T04:57:42.254Z,6.17
2019-03-05T05:00:13.705Z,3.93
2019-03-05T05:02:41.817Z,4.37
2019-03-05T05:05:10.294Z,3.73
2019-03-05T05:07:38.635Z,7.60
2019-03-05T05:10:07.369Z,6.70
2019-03-05T05:12:35.456Z,4.80
2019-03-05T05:15:05.333Z,5.17
2019-03-05T05:17:33.404Z,5.40
2019-03-05T05:20:01.546Z,13.13
2019-03-05T05:22:29.719Z,7.80
2019-03-05T05:24:58.145Z,9.33
2019-03-05T05:27:26.231Z,12.20
2019-03-05T05:29:54.452Z,9.57
2019-03-05T05:32:22.558Z,9.77
2019-03-05T05:34:50.713Z,7.83
2019-03-05T05:37:18.782Z,10.33
2019-03-05T05:40:29.631Z,6.40
2019-03-05T05:42:58.217Z,5.43
2019-03-05T05:45:33.959Z,6.57
2019-03-05T05:48:02.457Z,7.60
2019-03-05T05:50:30.548Z,11.37
2019-03-05T05:52:58.697Z,11.10
2019-03-05T05:55:26.924Z,7.90
2019-03-05T05:57:55.103Z,9.40
2019-03-05T06:00:23.206Z,6.47
2019-03-05T06:02:51.432Z,11.37
2019-03-05T06:05:19.851Z,7.30
2019-03-05T06:07:48.060Z,9.83
2019-03-05T06:10:16.199Z,6.33
2019-03-05T06:12:44.284Z,9.77
2019-03-05T06:15:12.768Z,7.87
2019-03-05T06:17:40.899Z,9.27
2019-03-05T06:20:10.361Z,3.00
2019-03-05T06:22:38.490Z,5.03
2019-03-05T06:25:07.142Z,9.20
2019-03-05T06:27:35.289Z,8.80
2019-03-05T06:30:04.300Z,9.23
2019-03-05T06:32:32.496Z,8.67
2019-03-05T06:35:01.082Z,5.90
2019-03-05T06:37:29.438Z,9.27
2019-03-05T06:39:57.549Z,10.40
2019-03-05T06:42:25.714Z,8.07
2019-03-05T06:44:54.022Z,5.87
2019-03-05T06:47:22.505Z,8.17
2019-03-05T06:49:50.649Z,7.00
2019-03-05T06:52:18.979Z,9.40
2019-03-05T06:54:47.232Z,7.40
2019-03-05T06:57:15.357Z,7.00
2019-03-05T06:59:43.800Z,6.47
2019-03-05T07:02:12.287Z,9.80
2019-03-05T07:04:40.481Z,8.50
2019-03-05T07:07:08.660Z,7.60
2019-03-05T07:10:38.531Z,6.07
2019-03-05T07:13:19.189Z,7.90
2019-03-05T07:16:23.171Z,9.13
2019-03-05T07:19:08.386Z,5.77
2019-03-05T07:22:41.462Z,9.70
2019-03-05T07:25:09.527Z,7.07
2019-03-05T07:27:41.348Z,7.20
2019-03-05T07:30:17.109Z,5.77
2019-03-05T07:32:45.458Z,6.80
2019-03-05T07:35:17.967Z,8.27
2019-03-05T07:37:46.094Z,8.93
2019-03-05T07:40:14.555Z,10.87
2019-03-05T07:42:42.816Z,11.70
2019-03-05T07:45:11.129Z,10.90
2019-03-05T07:47:39.266Z,6.27
2019-03-05T07:50:08.192Z,4.33
2019-03-05T07:52:36.346Z,7.07
2019-03-05T07:55:13.592Z,10.37
2019-03-05T07:57:37.818Z,10.70
2019-03-05T08:00:13.041Z,6.77
2019-03-05T08:02:41.143Z,4.97
2019-03-05T08:05:13.164Z,6.87
2019-03-05T08:07:41.898Z,6.53
2019-03-05T08:10:29.147Z,5.87
2019-03-05T08:13:34.839Z,6.93
2019-03-05T08:16:22.989Z,7.50
2019-03-05T08:18:51.163Z,3.20
2019-03-05T08:21:19.392Z,10.27
2019-03-05T08:23:48.458Z,6.67
2019-03-05T08:26:16.723Z,7.53
2019-03-05T08:28:44.864Z,5.07
2019-03-05T08:31:13.106Z,6.13
2019-03-05T08:33:41.263Z,5.43
2019-03-05T08:36:09.368Z,10.03
2019-03-05T08:38:37.511Z,7.60
2019-03-05T08:41:05.665Z,7.73
2019-03-05T08:43:34.734Z,5.77
2019-03-05T08:46:02.995Z,7.33
2019-03-05T08:48:32.069Z,8.27
2019-03-05T08:51:00.283Z,8.93
2019-03-05T08:53:28.354Z,9.17
2019-03-05T08:55:56.615Z,6.90
2019-03-05T08:58:24.807Z,11.50
2019-03-05T09:00:52.985Z,8.13
2019-03-05T09:03:21.146Z,8.17
2019-03-05T09:05:49.957Z,11.00
2019-03-05T09:08:18.090Z,9.37
2019-03-05T09:10:46.258Z,6.27
2019-03-05T09:13:14.340Z,10.07
2019-03-05T09:15:42.494Z,7.90
2019-03-05T09:18:10.605Z,4.77
2019-03-05T09:20:38.860Z,5.87
2019-03-05T09:23:07.030Z,8.30
2019-03-05T09:25:35.166Z,6.63
2019-03-05T09:28:03.423Z,9.67
2019-03-05T09:30:31.609Z,7.10
2019-03-05T09:32:59.923Z,6.20
2019-03-05T09:35:28.022Z,9.47
2019-03-05T09:37:56.154Z,4.17
2019-03-05T09:40:24.323Z,6.43
2019-03-05T09:42:52.404Z,5.03
2019-03-05T09:45:20.879Z,5.90
2019-03-05T09:47:49.072Z,4.43
2019-03-05T09:50:17.923Z,4.47
2019-03-05T09:52:54.420Z,5.73
2019-03-05T09:55:18.535Z,5.00
2019-03-05T09:57:52.454Z,8.80
2019-03-05T10:00:21.259Z,6.77
2019-03-05T10:02:49.339Z,9.73
2019-03-05T10:05:17.480Z,8.57
2019-03-05T10:07:45.625Z,7.53
2019-03-05T10:10:21.491Z,5.70
2019-03-05T10:12:49.641Z,8.87
2019-03-05T10:15:19.006Z,3.87
2019-03-05T10:17:49.795Z,7.17
2019-03-05T10:20:19.476Z,7.20
2019-03-05T10:22:47.943Z,6.43
2019-03-05T10:25:18.392Z,5.97
2019-03-05T10:27:46.569Z,6.43
2019-03-05T10:30:24.752Z,5.83
2019-03-05T10:32:51.327Z,6.83
2019-03-05T10:35:22.504Z,5.87
2019-03-05T10:37:51.752Z,7.77
2019-03-05T10:40:21.318Z,6.10
2019-03-05T10:42:49.579Z,7.70
2019-03-05T10:45:18.248Z,5.60
2019-03-05T10:47:48.060Z,4.50
2019-03-05T10:50:19.629Z,5.77
2019-03-05T10:52:47.736Z,6.10
2019-03-05T10:55:25.911Z,2.47
2019-03-05T10:57:46.000Z,5.30
2019-03-05T11:00:19.360Z,3.33
2019-03-05T11:02:49.866Z,5.83
2019-03-05T11:05:18.019Z,11.03
2019-03-05T11:07:46.315Z,8.43
2019-03-05T11:10:15.675Z,6.03
2019-03-05T11:12:44.144Z,3.63
2019-03-05T11:15:20.109Z,5.93
2019-03-05T11:17:48.335Z,7.17
2019-03-05T11:20:16.730Z,5.67
2019-03-05T11:22:44.950Z,4.40
2019-03-05T11:25:13.333Z,2.90
2019-03-05T11:27:42.339Z,5.83
2019-03-05T11:30:16.246Z,6.67
2019-03-05T11:32:44.427Z,4.53
2019-03-05T11:35:15.597Z,4.10
2019-03-05T11:37:43.820Z,3.90
2019-03-05T11:40:20.716Z,2.23
2019-03-05T11:42:42.238Z,3.63
2019-03-05T11:45:15.356Z,5.63
2019-03-05T11:47:43.684Z,4.70
2019-03-05T11:50:13.016Z,4.47
2019-03-05T11:52:41.484Z,3.03
2019-03-05T11:55:12.559Z,4.63
2019-03-05T11:57:40.786Z,4.87
2019-03-05T12:00:15.270Z,5.10
2019-03-05T12:02:43.485Z,7.57
2019-03-05T12:05:11.695Z,4.33
2019-03-05T12:07:39.856Z,5.57
2019-03-05T12:10:10.811Z,3.87
2019-03-05T12:12:38.905Z,6.33
2019-03-05T12:15:11.300Z,7.03
2019-03-05T12:17:39.420Z,6.90
2019-03-05T12:20:09.911Z,4.00
2019-03-05T12:22:38.060Z,6.27
2019-03-05T12:25:09.412Z,7.50
2019-03-05T12:27:37.681Z,4.00
2019-03-05T12:30:08.408Z,3.10
2019-03-05T12:32:36.626Z,10.63
2019-03-05T12:35:04.889Z,4.77
2019-03-05T12:37:32.977Z,5.00
2019-03-05T12:40:01.139Z,3.00
2019-03-05T12:42:29.171Z,8.67
2019-03-05T12:44:59.103Z,6.27
2019-03-05T12:47:27.180Z,5.67
2019-03-05T12:49:55.288Z,2.33
2019-03-05T12:52:23.424Z,4.60
2019-03-05T12:54:51.514Z,4.47
2019-03-05T12:57:19.600Z,4.63
2019-03-05T12:59:47.784Z,6.20
2019-03-05T13:02:15.982Z,3.50
2019-03-05T13:04:44.182Z,7.20
2019-03-05T13:07:14.158Z,4.77
2019-03-05T13:09:42.283Z,3.87
2019-03-05T13:12:10.491Z,8.07
2019-03-05T13:14:42.630Z,4.30
2019-03-05T13:17:08.756Z,5.47
2019-03-05T13:19:38.713Z,4.17
2019-03-05T13:22:06.835Z,3.73
2019-03-05T13:24:34.897Z,1.77
2019-03-05T13:27:03.126Z,3.77
2019-03-05T13:29:31.306Z,4.60
2019-03-05T13:31:59.510Z,2.10
2019-03-05T13:34:27.700Z,4.77
2019-03-05T13:36:56.475Z,3.83
2019-03-05T13:39:24.661Z,4.67
2019-03-05T13:41:53.867Z,3.53
2019-03-05T13:44:34.020Z,4.90
2019-03-05T13:47:05.765Z,3.40
2019-03-05T13:50:56.346Z,5.57
2019-03-05T13:54:01.112Z,3.87
2019-03-05T13:57:24.838Z,5.17
2019-03-05T13:59:52.946Z,4.13
2019-03-05T14:02:53.131Z,3.13
2019-03-05T14:06:07.547Z,4.50
2019-03-05T14:09:15.794Z,4.70
2019-03-05T14:11:45.969Z,3.57
2019-03-05T14:14:38.073Z,7.87
2019-03-05T14:17:20.200Z,6.47
2019-03-05T14:19:48.448Z,6.53
2019-03-05T14:22:17.110Z,5.50
2019-03-05T14:24:45.210Z,6.90
2019-03-05T14:27:13.460Z,2.17
2019-03-05T14:29:41.686Z,3.07
2019-03-05T14:32:10.355Z,5.23
2019-03-05T14:34:38.474Z,5.20
2019-03-05T14:37:06.554Z,4.40
2019-03-05T14:39:35.155Z,2.93
2019-03-05T14:42:06.550Z,2.90
2019-03-05T14:44:39.780Z,2.57
2019-03-05T14:47:06.037Z,5.60
2019-03-05T14:49:34.401Z,2.63
2019-03-05T14:52:03.450Z,2.77
2019-03-05T14:54:31.620Z,1.90
2019-03-05T14:57:00.065Z,5.40
2019-03-05T14:59:28.235Z,5.17
2019-03-05T15:01:56.585Z,5.40
2019-03-05T15:04:24.820Z,6.63
2019-03-05T15:06:53.004Z,3.10
2019-03-05T15:09:21.162Z,2.10
2019-03-05T15:11:49.316Z,3.20
2019-03-05T15:14:18.567Z,3.33
2019-03-05T15:16:48.400Z,4.03
2019-03-05T15:19:21.409Z,4.50
2019-03-05T15:21:46.859Z,4.03
2019-03-05T15:24:14.957Z,4.80
2019-03-05T15:26:43.202Z,4.70
2019-03-05T15:29:11.478Z,3.30
2019-03-05T15:31:41.443Z,2.70
2019-03-05T15:34:09.662Z,11.57
2019-03-05T15:36:37.737Z,6.20
2019-03-05T15:39:06.620Z,3.30
2019-03-05T15:41:34.798Z,4.57
2019-03-05T15:44:03.057Z,2.23
2019-03-05T15:46:31.322Z,4.97
2019-03-05T15:48:59.493Z,3.23
2019-03-05T15:51:27.728Z,3.03
2019-03-05T15:53:55.804Z,1.67
2019-03-05T15:56:23.970Z,7.90
2019-03-05T15:58:52.091Z,4.13
2019-03-05T16:01:22.495Z,3.77
2019-03-05T16:03:50.243Z,4.90
2019-03-05T16:06:18.974Z,3.03
2019-03-05T16:08:47.072Z,3.47
2019-03-05T16:11:15.210Z,4.87
2019-03-05T16:13:43.273Z,2.97
2019-03-05T16:16:11.496Z,6.27
2019-03-05T16:18:40.314Z,4.23
2019-03-05T16:21:08.530Z,7.33
2019-03-05T16:23:36.608Z,6.63
2019-03-05T16:26:04.733Z,5.67
2019-03-05T16:28:32.848Z,3.83
2019-03-05T16:31:21.804Z,4.57
2019-03-05T16:33:56.111Z,5.17
2019-03-05T16:36:42.736Z,6.03
2019-03-05T16:39:18.894Z,6.23
2019-03-05T16:42:06.626Z,7.97
2019-03-05T16:45:09.700Z,10.83
2019-03-05T16:47:50.225Z,7.93
2019-03-05T16:50:47.212Z,9.90
2019-03-05T16:53:22.657Z,6.03
2019-03-05T16:56:10.323Z,5.73
2019-03-05T16:59:08.144Z,18.70
2019-03-05T17:02:10.982Z,13.13
2019-03-05T17:04:57.542Z,8.13
2019-03-05T17:07:42.749Z,7.40
2019-03-05T17:10:45.817Z,3.07
2019-03-05T17:13:14.109Z,3.10
2019-03-05T17:15:42.560Z,5.57
2019-03-05T17:18:10.970Z,8.60
2019-03-05T17:20:39.943Z,5.00
2019-03-05T17:23:08.373Z,3.50
2019-03-05T17:25:36.552Z,6.83
2019-03-05T17:28:04.677Z,5.00
2019-03-05T17:30:32.760Z,6.00
2019-03-05T17:33:00.974Z,5.10
2019-03-05T17:35:29.290Z,8.47
2019-03-05T17:37:57.472Z,3.07
2019-03-05T17:40:25.535Z,3.50
2019-03-05T17:42:53.633Z,8.50
2019-03-05T17:45:22.101Z,2.60
2019-03-05T17:47:50.475Z,4.90
2019-03-05T17:50:18.590Z,7.47
2019-03-05T17:52:46.705Z,3.67
2019-03-05T17:55:24.530Z,6.13
2019-03-05T17:57:47.935Z,7.30
2019-03-05T18:00:26.478Z,4.60
2019-03-05T18:02:54.569Z,7.07
2019-03-05T18:05:22.632Z,7.97
2019-03-05T18:07:50.824Z,8.53
2019-03-05T18:10:18.960Z,7.67
2019-03-05T18:12:47.322Z,4.43
2019-03-05T18:15:16.703Z,2.43
2019-03-05T18:17:44.917Z,10.23
2019-03-05T18:20:14.087Z,5.80
2019-03-05T18:22:42.184Z,7.77
2019-03-05T18:25:10.855Z,5.23
2019-03-05T18:27:39.028Z,9.37
2019-03-05T18:30:12.383Z,8.67
2019-03-05T18:32:40.487Z,4.37
2019-03-05T18:35:09.284Z,6.93
2019-03-05T18:37:37.408Z,9.13
2019-03-05T18:40:07.667Z,7.73
2019-03-05T18:42:35.778Z,6.77
2019-03-05T18:45:20.701Z,9.00
2019-03-05T18:47:48.844Z,6.33
2019-03-05T18:50:19.234Z,5.00
2019-03-05T18:52:48.931Z,6.03
2019-03-05T18:55:18.004Z,9.57
2019-03-05T18:57:46.272Z,10.90
2019-03-05T19:00:20.574Z,6.00
2019-03-05T19:02:49.905Z,6.10
2019-03-05T19:05:17.979Z,7.07
2019-03-05T19:07:47.021Z,7.90
2019-03-05T19:10:16.712Z,7.50
2019-03-05T19:12:44.907Z,15.47
2019-03-05T19:15:19.000Z,4.90
2019-03-05T19:17:47.104Z,5.87
2019-03-05T19:20:18.305Z,6.63
2019-03-05T19:22:46.977Z,6.13
2019-03-05T19:25:18.523Z,4.77
2019-03-05T19:27:46.766Z,8.07
2019-03-05T19:30:18.717Z,4.97
2019-03-05T19:32:47.980Z,7.80
2019-03-05T19:35:16.254Z,5.90
2019-03-05T19:37:44.358Z,7.03
2019-03-05T19:40:16.180Z,6.53
2019-03-05T19:42:49.939Z,7.67
2019-03-05T19:45:18.465Z,7.77
2019-03-05T19:47:46.583Z,10.07
2019-03-05T19:50:16.415Z,8.10
2019-03-05T19:52:44.513Z,6.27
2019-03-05T19:55:15.094Z,5.03
2019-03-05T19:57:43.300Z,7.80
2019-03-05T20:00:16.832Z,9.50
2019-03-05T20:02:44.995Z,9.70
2019-03-05T20:05:15.163Z,10.43
2019-03-05T20:07:43.296Z,7.07
2019-03-05T20:10:15.006Z,10.27
2019-03-05T20:12:43.160Z,8.53
2019-03-05T20:15:14.076Z,7.90
2019-03-05T20:17:42.603Z,11.30
2019-03-05T20:20:11.032Z,10.77
2019-03-05T20:22:39.199Z,8.73
2019-03-05T20:25:11.990Z,8.87
2019-03-05T20:27:40.204Z,13.57
2019-03-05T20:30:14.094Z,11.60
2019-03-05T20:32:42.248Z,8.00
2019-03-05T20:35:10.520Z,12.70
2019-03-05T20:37:38.672Z,13.07
2019-03-05T20:40:11.176Z,10.07
2019-03-05T20:42:39.597Z,13.73
2019-03-05T20:45:12.767Z,11.17
2019-03-05T20:47:40.956Z,12.20
2019-03-05T20:50:10.610Z,11.47
2019-03-05T20:52:41.415Z,13.43
2019-03-05T20:55:12.788Z,9.57
2019-03-05T20:57:40.959Z,11.87
2019-03-05T21:00:25.272Z,10.67
2019-03-05T21:02:55.602Z,8.33
2019-03-05T21:05:26.178Z,11.23
2019-03-05T21:07:54.296Z,9.63
2019-03-05T21:10:22.380Z,11.90
2019-03-05T21:12:50.601Z,14.67
2019-03-05T21:15:18.926Z,10.53
2019-03-05T21:17:47.156Z,12.53
2019-03-05T21:20:15.458Z,13.90
2019-03-05T21:22:43.556Z,13.17
2019-03-05T21:25:12.002Z,10.90
2019-03-05T21:27:40.437Z,10.87
2019-03-05T21:30:15.795Z,11.27
2019-03-05T21:32:44.206Z,11.03
2019-03-05T21:35:12.857Z,12.83
2019-03-05T21:37:40.978Z,13.90
2019-03-05T21:40:17.374Z,13.90
2019-03-05T21:42:45.680Z,10.17
2019-03-05T21:45:24.724Z,13.17
2019-03-05T21:47:52.986Z,13.30
2019-03-05T21:50:23.170Z,15.07
2019-03-05T21:52:51.376Z,12.07
2019-03-05T21:55:19.536Z,12.53
2019-03-05T21:57:47.691Z,10.30
2019-03-05T22:00:20.049Z,9.73
2019-03-05T22:02:48.295Z,12.63
2019-03-05T22:05:16.560Z,11.87
2019-03-05T22:07:44.662Z,11.33
2019-03-05T22:10:15.566Z,11.90
2019-03-05T22:12:44.180Z,13.23
2019-03-05T22:15:15.032Z,13.47
2019-03-05T22:17:43.403Z,10.73
2019-03-05T22:20:12.460Z,13.13
2019-03-05T22:22:41.248Z,13.20
2019-03-05T22:25:12.561Z,10.13
2019-03-05T22:27:41.094Z,12.07
2019-03-05T22:30:19.795Z,14.33
2019-03-05T22:32:48.069Z,11.70
2019-03-05T22:35:17.497Z,12.83
2019-03-05T22:37:45.870Z,16.30
2019-03-05T22:40:14.552Z,11.70
2019-03-05T22:42:42.704Z,11.83
2019-03-05T22:45:16.871Z,10.97
2019-03-05T22:47:45.006Z,12.23
2019-03-05T22:50:13.720Z,11.23
2019-03-05T22:52:42.004Z,11.63
2019-03-05T22:55:10.832Z,11.77
2019-03-05T22:57:38.936Z,10.60
2019-03-05T23:00:38.697Z,13.10
2019-03-05T23:03:07.277Z,13.00
2019-03-05T23:05:35.459Z,13.03
2019-03-05T23:08:04.282Z,11.23
2019-03-05T23:10:33.075Z,12.33
2019-03-05T23:13:01.453Z,10.40
2019-03-05T23:15:29.735Z,8.20
2019-03-05T23:17:57.817Z,11.10
2019-03-05T23:20:26.258Z,11.67
2019-03-05T23:22:54.371Z,11.73
2019-03-05T23:25:22.803Z,11.90
2019-03-05T23:27:51.281Z,12.00
2019-03-05T23:30:20.382Z,10.57
2019-03-05T23:32:49.414Z,10.80
2019-03-05T23:35:17.834Z,10.40
2019-03-05T23:37:46.222Z,9.87
2019-03-05T23:40:16.394Z,13.60
2019-03-05T23:42:44.592Z,9.50
2019-03-05T23:45:13.301Z,11.07
2019-03-05T23:47:41.392Z,12.40
2019-03-05T23:50:10.296Z,13.27
2019-03-05T23:52:39.487Z,11.67
2019-03-05T23:55:07.852Z,11.70
2019-03-05T23:57:35.935Z,8.60
